Time;durP1;ratioP1;P1;durP2;ratioP2;P2;SDS_P1;SDS_P2;PMS_P1;PMS_P2;Temp;Humidity;BMP_temperature;BMP_pressure;BME280_temperature;BME280_humidity;BME280_pressure;Samples;Min_cycle;Max_cycle;Signal;HPM_P1;HPM_P2
2023/01/01 00:20:07;;;;;;;32.92;17.15;;;;;;;;;;21248260;28;20407;-61
2023/01/01 00:30:09;;;;;;;26.50;15.23;;;;;;;;;;21251227;27;20042;-55
2023/01/01 00:40:11;;;;;;;29.58;16.10;;;;;;;;;;21264251;27;20124;-56
2023/01/01 00:50:13;;;;;;;22.15;14.27;;;;;;;;;;21263507;27;20483;-58
2023/01/01 01:00:16;;;;;;;30.15;15.50;;;;;;;;;;21262102;27;20483;-54
2023/01/01 01:10:20;;;;;;;29.45;18.05;;;;;;;;;;21260883;27;20184;-56
2023/01/01 01:20:23;;;;;;;;;;;;;;;;;;21260923;27;20051;-55
2023/01/01 01:30:25;;;;;;;27.67;14.55;;;;;;;;;;21260186;27;19975;-60
2023/01/01 01:40:30;;;;;;;26.60;14.48;;;;;;;;;;21260592;27;20474;-59
2023/01/01 01:50:33;;;;;;;30.20;15.85;;;;;;;;;;21259370;27;20491;-55
2023/01/01 02:00:36;;;;;;;31.25;14.27;;;;;;;;;;21249703;27;20055;-59
2023/01/01 02:10:39;;;;;;;27.77;14.35;;;;;;;;;;21257421;27;20078;-60
2023/01/01 02:20:45;;;;;;;26.95;13.90;;;;;;;;;;21257990;27;20050;-70
2023/01/01 02:30:53;;;;;;;29.23;13.63;;;8.80;67.80;;;;;;21256371;27;20051;-69
2023/01/01 02:41:17;;;;;;;26.10;13.68;;;8.80;68.20;;;;;;21256384;27;20054;-70
2023/01/01 02:51:45;;;;;;;25.35;15.27;;;9.00;67.90;;;;;;21254633;27;20051;-59
2023/01/01 03:02:10;;;;;;;31.95;15.23;;;9.10;67.70;;;;;;21269587;27;20057;-55
2023/01/01 03:12:18;;;;;;;25.90;15.57;;;9.20;67.50;;;;;;21272387;27;20558;-58
2023/01/01 03:22:33;;;;;;;25.65;14.10;;;9.10;67.40;;;;;;21252668;27;20457;-60
2023/01/01 03:33:04;;;;;;;22.85;13.13;;;9.20;67.00;;;;;;21251444;27;20104;-61
2023/01/01 03:43:15;;;;;;;26.20;13.65;;;9.30;66.50;;;;;;21249249;27;20051;-54
2023/01/01 03:53:31;;;;;;;24.30;12.45;;;9.30;66.90;;;;;;21249483;27;20051;-55
2023/01/01 04:03:34;;;;;;;30.65;16.45;;;9.50;66.50;;;;;;21251967;27;20043;-56
2023/01/01 04:13:47;;;;;;;25.60;13.63;;;9.40;66.20;;;;;;21266937;27;20043;-56
2023/01/01 04:23:53;;;;;;;19.08;9.95;;;9.40;66.70;;;;;;21265390;27;20062;-55
2023/01/01 04:33:59;;;;;;;15.10;7.80;;;9.40;65.00;;;;;;21264452;27;20051;-57
2023/01/01 04:44:03;;;;;;;19.08;10.07;;;;;;;;;;21264069;27;20048;-56
2023/01/01 04:54:08;;;;;;;22.45;13.10;;;9.50;62.90;;;;;;21263459;27;20047;-59
2023/01/01 05:04:14;;;;;;;21.77;11.52;;;9.50;64.30;;;;;;21262170;27;20373;-59
2023/01/01 05:14:16;;;;;;;24.88;12.93;;;9.30;65.60;;;;;;21260493;27;20050;-63
2023/01/01 05:24:17;;;;;;;25.05;11.07;;;9.20;66.70;;;;;;21261558;27;20406;-62
2023/01/01 05:34:19;;;;;;;21.10;12.00;;;9.20;66.90;;;;;;21260114;27;20047;-64
2023/01/01 05:44:21;;;;;;;22.23;11.68;;;9.30;66.50;;;;;;21259493;27;20046;-64
2023/01/01 05:54:24;;;;;;;19.48;10.52;;;9.30;66.70;;;;;;21259173;27;20395;-57
2023/01/01 06:04:28;;;;;;;22.45;12.43;;;9.20;66.80;;;;;;21257855;27;20113;-69
2023/01/01 06:14:30;;;;;;;17.30;9.80;;;9.10;66.90;;;;;;21258139;27;20421;-59
2023/01/01 06:24:31;;;;;;;17.48;8.77;;;9.10;67.00;;;;;;21256102;27;20054;-67
2023/01/01 06:34:33;;;;;;;16.17;8.77;;;9.10;66.80;;;;;;21254777;27;20050;-69
2023/01/01 06:44:37;;;;;;;19.88;10.82;;;;;;;;;;21255886;27;20503;-57
2023/01/01 06:54:38;;;;;;;20.02;10.95;;;9.30;66.10;;;;;;21253491;27;20086;-59
2023/01/01 07:04:40;;;;;;;13.68;8.45;;;9.30;67.50;;;;;;21251941;27;20051;-57
2023/01/01 07:14:42;;;;;;;16.77;8.38;;;9.40;67.70;;;;;;21252210;27;20340;-57
2023/01/01 07:24:47;;;;;;;14.57;7.93;;;9.30;68.00;;;;;;21251380;27;20126;-57
2023/01/01 07:34:49;;;;;;;17.38;7.95;;;9.30;68.00;;;;;;21250120;27;20059;-57
2023/01/01 07:44:50;;;;;;;18.88;8.18;;;9.30;70.30;;;;;;21249667;27;20039;-57
2023/01/01 07:54:53;;;;;;;15.85;7.18;;;9.20;70.40;;;;;;21249961;27;20047;-56
2023/01/01 08:04:56;;;;;;;14.23;7.78;;;9.20;71.00;;;;;;21248876;27;20051;-56
2023/01/01 08:14:58;;;;;;;15.23;7.72;;;9.20;71.20;;;;;;21248184;28;20047;-56
2023/01/01 08:25:00;;;;;;;13.93;8.32;;;9.20;71.70;;;;;;21247913;28;20065;-57
2023/01/01 08:35:04;;;;;;;19.45;8.07;;;9.40;71.50;;;;;;21247559;28;20051;-55
2023/01/01 08:45:07;;;;;;;12.88;7.20;;;9.50;71.60;;;;;;21247110;28;20075;-59
2023/01/01 08:55:09;;;;;;;17.30;6.63;;;9.60;70.90;;;;;;21258085;27;20099;-58
2023/01/01 09:05:11;;;;;;;11.80;6.22;;;9.60;70.00;;;;;;21263617;27;20047;-54
2023/01/01 09:15:17;;;;;;;16.30;6.60;;;9.60;69.90;;;;;;21261274;27;20047;-52
2023/01/01 09:25:19;;;;;;;12.73;5.88;;;9.60;69.60;;;;;;21260548;27;20039;-56
2023/01/01 09:35:22;;;;;;;15.77;6.93;;;;;;;;;;21260538;27;20058;-54
2023/01/01 09:45:30;;;;;;;15.02;7.47;;;10.10;68.10;;;;;;21264834;27;20039;-54
2023/01/01 09:55:42;;;;;;;15.38;7.10;;;10.20;67.50;;;;;;21258836;27;20130;-55
2023/01/01 10:05:55;;;;;;;14.95;7.32;;;10.30;67.40;;;;;;21258437;27;20089;-56
2023/01/01 10:16:26;;;;;;;13.25;6.78;;;10.50;67.40;;;;;;21257358;27;20058;-59
2023/01/01 10:26:30;;;;;;;12.07;6.22;;;10.70;66.60;;;;;;21257497;27;20083;-55
2023/01/01 10:36:32;;;;;;;13.87;6.13;;;;;;;;;;21256154;27;20043;-57
2023/01/01 10:46:36;;;;;;;14.45;6.65;;;;;;;;;;21257468;27;20046;-58
2023/01/01 10:56:40;;;;;;;11.20;6.27;;;11.40;63.70;;;;;;21255927;27;20083;-58
2023/01/01 11:06:45;;;;;;;11.43;6.72;;;;;;;;;;21252792;27;20099;-58
2023/01/01 11:16:47;;;;;;;10.35;5.47;;;;;;;;;;21261317;27;20047;-57
2023/01/01 11:26:50;;;;;;;13.80;5.18;;;;;;;;;;21259675;27;20141;-58
2023/01/01 11:37:05;;;;;;;6.28;3.13;;;;;;;;;;21251969;27;20047;-58
2023/01/01 11:47:18;;;;;;;6.40;3.87;;;;;;;;;;21259900;27;20047;-56
2023/01/01 11:57:23;;;;;;;8.60;3.72;;;;;;;;;;21252210;27;20693;-56
2023/01/01 12:07:30;;;;;;;4.67;2.40;;;;;;;;;;21248712;27;20047;-57
2023/01/01 12:18:05;;;;;;;6.63;2.50;;;;;;;;;;21249237;28;20191;-62
2023/01/01 12:28:09;;;;;;;8.13;2.95;;;;;;;;;;20911357;28;20168;-55
2023/01/01 12:38:26;;;;;;;4.68;2.00;;;;;;;;;;20919335;28;20049;-56
2023/01/01 12:48:28;;;;;;;5.60;2.25;;;;;;;;;;20919064;28;20095;-67
2023/01/01 12:58:37;;;;;;;4.57;2.78;;;;;;;;;;21044192;27;20510;-62
2023/01/01 13:08:39;;;;;;;4.32;2.22;;;;;;;;;;21262270;27;20478;-61
2023/01/01 13:18:41;;;;;;;4.53;2.67;;;;;;;;;;21261523;27;20047;-57
2023/01/01 13:28:44;;;;;;;5.82;2.85;;;;;;;;;;21261091;27;20376;-58
2023/01/01 13:38:52;;;;;;;5.28;2.60;;;;;;;;;;21259214;27;20444;-56
2023/01/01 13:49:02;;;;;;;7.45;3.45;;;;;;;;;;21259052;27;20108;-55
2023/01/01 13:59:15;;;;;;;5.40;2.65;;;;;;;;;;21255744;27;20538;-55
2023/01/01 14:09:19;;;;;;;4.28;2.88;;;;;;;;;;21255074;27;20051;-55
2023/01/01 14:19:22;;;;;;;5.82;2.97;;;;;;;;;;21257557;27;20051;-55
2023/01/01 14:29:28;;;;;;;5.30;2.63;;;14.90;38.90;;;;;;21256096;27;20050;-57
2023/01/01 14:39:32;;;;;;;10.07;4.25;;;15.00;38.20;;;;;;21256274;27;20115;-56
2023/01/01 14:49:37;;;;;;;7.18;3.28;;;15.00;38.60;;;;;;21253891;27;20040;-58
2023/01/01 14:59:46;;;;;;;9.38;3.70;;;15.10;39.60;;;;;;21255085;27;20054;-56
2023/01/01 15:09:48;;;;;;;8.10;3.17;;;15.00;40.20;;;;;;21250978;27;20055;-55
2023/01/01 15:20:06;;;;;;;6.63;3.13;;;15.00;39.90;;;;;;21250832;27;20452;-55
2023/01/01 15:30:34;;;;;;;9.43;2.60;;;15.00;39.10;;;;;;21250654;27;20419;-60
2023/01/01 15:40:39;;;;;;;6.72;2.80;;;14.90;38.90;;;;;;21250141;27;20051;-55
2023/01/01 15:50:48;;;;;;;7.13;2.87;;;14.80;39.40;;;;;;21249104;27;20395;-55
2023/01/01 16:01:05;;;;;;;6.25;3.10;;;14.70;40.00;;;;;;21247828;27;20344;-55
2023/01/01 16:11:07;;;;;;;8.27;3.25;;;14.60;40.30;;;;;;21248085;27;20050;-55
2023/01/01 16:21:09;;;;;;;9.63;4.32;;;14.60;41.50;;;;;;21247635;28;20062;-56
2023/01/01 16:31:24;;;;;;;7.63;4.25;;;14.40;42.70;;;;;;21247512;28;20499;-56
2023/01/01 16:41:30;;;;;;;7.07;4.35;;;14.30;43.00;;;;;;21247403;28;20075;-56
2023/01/01 16:51:33;;;;;;;9.43;5.18;;;14.30;42.90;;;;;;21247262;28;20077;-54
2023/01/01 17:01:35;;;;;;;12.70;6.22;;;14.20;43.20;;;;;;21245927;28;20047;-55
2023/01/01 17:11:38;;;;;;;13.93;6.68;;;14.10;43.60;;;;;;21248858;27;20047;-56
2023/01/01 17:21:41;;;;;;;10.63;6.45;;;14.00;44.60;;;;;;21260402;27;20410;-55
2023/01/01 17:31:43;;;;;;;17.92;11.43;;;13.90;45.20;;;;;;21258914;27;20054;-55
2023/01/01 17:41:45;;;;;;;15.13;7.57;;;13.80;46.30;;;;;;21259782;27;20483;-55
2023/01/01 17:51:47;;;;;;;13.05;7.25;;;13.70;46.50;;;;;;21258504;27;20048;-56
2023/01/01 18:01:50;;;;;;;15.70;9.15;;;13.50;47.10;;;;;;21257160;27;20051;-54
2023/01/01 18:11:53;;;;;;;12.52;8.43;;;13.40;47.70;;;;;;21256963;27;20544;-55
2023/01/01 18:21:56;;;;;;;16.10;8.75;;;13.30;47.70;;;;;;21255446;27;20450;-60
2023/01/01 18:31:57;;;;;;;14.13;7.78;;;13.20;48.80;;;;;;21255225;27;20063;-58
2023/01/01 18:42:05;;;;;;;13.75;9.70;;;13.20;48.60;;;;;;21253688;27;20047;-62
2023/01/01 18:52:22;;;;;;;18.85;8.80;;;13.10;49.80;;;;;;21253722;27;20144;-59
2023/01/01 19:02:37;;;;;;;16.30;8.45;;;13.00;50.90;;;;;;21252331;27;20055;-61
2023/01/01 19:12:39;;;;;;;15.97;9.93;;;13.00;51.40;;;;;;21252325;27;20418;-55
2023/01/01 19:22:41;;;;;;;17.83;10.27;;;12.80;52.20;;;;;;21249972;27;20088;-56
2023/01/01 19:32:46;;;;;;;23.58;15.38;;;12.70;52.70;;;;;;21250229;27;20047;-56
2023/01/01 19:42:47;;;;;;;13.10;7.40;;;12.60;53.60;;;;;;21250640;27;20532;-56
2023/01/01 19:52:49;;;;;;;14.45;7.90;;;12.30;54.50;;;;;;21248308;27;20105;-58
2023/01/01 20:02:51;;;;;;;15.75;9.02;;;12.20;54.70;;;;;;21248059;27;20043;-56
2023/01/01 20:12:52;;;;;;;108.70;65.00;;;12.30;54.50;;;;;;21249935;27;20532;-54
2023/01/01 20:22:54;;;;;;;14.27;8.75;;;12.30;54.70;;;;;;21247457;28;20643;-55
2023/01/01 20:32:57;;;;;;;22.75;13.63;;;12.40;54.10;;;;;;21248553;28;20396;-54
2023/01/01 20:42:59;;;;;;;21.02;12.63;;;12.50;53.30;;;;;;21246628;28;20044;-60
2023/01/01 20:53:02;;;;;;;21.83;12.75;;;12.50;53.50;;;;;;21250464;27;20051;-55
2023/01/01 21:03:03;;;;;;;17.08;10.82;;;12.30;55.50;;;;;;21262152;27;20054;-57
2023/01/01 21:13:07;;;;;;;35.53;22.13;;;12.10;56.40;;;;;;21260383;27;20090;-55
2023/01/01 21:23:26;;;;;;;16.50;10.43;;;12.00;57.20;;;;;;21260821;27;20197;-55
2023/01/01 21:33:31;;;;;;;13.18;8.07;;;12.10;56.90;;;;;;21259973;27;20047;-68
2023/01/01 21:43:47;;;;;;;21.77;9.27;;;12.20;54.70;;;;;;21258140;27;20046;-63
2023/01/01 21:53:48;;;;;;;;;;;12.30;52.50;;;;;;21258381;27;20051;-64
2023/01/01 22:04:09;;;;;;;14.52;9.32;;;12.40;51.80;;;;;;21257808;27;19962;-58
2023/01/01 22:14:16;;;;;;;18.88;9.90;;;12.30;53.10;;;;;;21257321;27;20073;-55
2023/01/01 22:24:33;;;;;;;15.00;8.82;;;12.20;54.80;;;;;;21255353;27;20058;-59
2023/01/01 22:34:36;;;;;;;11.52;6.70;;;12.20;54.90;;;;;;21255953;27;20050;-58
2023/01/01 22:44:40;;;;;;;14.75;8.35;;;12.30;54.70;;;;;;21255230;27;20079;-70
2023/01/01 22:54:42;;;;;;;10.02;5.20;;;12.30;53.90;;;;;;21253456;27;20066;-55
2023/01/01 23:04:44;;;;;;;15.90;9.15;;;12.30;52.00;;;;;;21252905;27;20083;-65
2023/01/01 23:25:10;;;;;;;5.90;2.10;;;12.60;46.00;;;;;;21251565;27;20046;-58
2023/01/01 23:35:12;;;;;;;4.35;2.60;;;12.80;48.10;;;;;;21250487;27;20047;-61
2023/01/01 23:45:15;;;;;;;4.38;2.25;;;12.80;49.40;;;;;;21250688;27;20040;-70
2023/01/01 23:55:16;;;;;;;3.13;1.85;;;12.70;51.70;;;;;;21251905;27;20066;-70
